Time;durP1;ratioP1;P1;durP2;ratioP2;P2;SDS_P1;SDS_P2;PMS_P1;PMS_P2;Temp;Humidity;BMP_temperature;BMP_pressure;BME280_temperature;BME280_humidity;BME280_pressure;Samples;Min_cycle;Max_cycle;Signal;HPM_P1;HPM_P2
2021/05/27 00:01:56;;;;;;;;;2.67;2.67;;;;;20.19;41.14;101346.44;5021857;28;45987;-56
2021/05/27 00:04:21;;;;;;;;;2.00;2.00;;;;;20.18;41.06;101348.22;5022080;28;56136;-57
2021/05/27 00:06:46;;;;;;;;;3.00;3.00;;;;;20.18;41.38;101356.13;5021769;28;59634;-57
2021/05/27 00:09:12;;;;;;;;;2.00;2.00;;;;;20.18;41.19;101355.25;5021468;28;45216;-56
2021/05/27 00:11:38;;;;;;;;;3.33;2.33;;;;;20.17;41.04;101356.19;5017633;28;45304;-54
2021/05/27 00:14:03;;;;;;;;;3.00;3.00;;;;;20.17;41.22;101354.38;5021018;28;45250;-55
2021/05/27 00:16:28;;;;;;;;;4.33;2.67;;;;;20.17;41.22;101350.91;5022504;28;45203;-56
2021/05/27 00:18:54;;;;;;;;;2.67;2.67;;;;;20.17;41.01;101356.19;5022593;28;45380;-55
2021/05/27 00:21:20;;;;;;;;;2.67;2.67;;;;;20.16;41.11;101355.31;5022194;28;45443;-55
2021/05/27 00:23:46;;;;;;;;;3.67;3.33;;;;;20.15;41.17;101358.84;5022898;28;53462;-56
2021/05/27 00:26:11;;;;;;;;;2.67;2.67;;;;;20.15;41.43;101365.91;5022172;28;45133;-58
2021/05/27 00:28:37;;;;;;;;;2.67;2.67;;;;;20.15;41.13;101363.25;5022609;28;45489;-55
2021/05/27 00:31:03;;;;;;;;;2.67;2.67;;;;;20.14;41.28;101367.66;5021982;28;46193;-55
2021/05/27 00:33:28;;;;;;;;;2.67;2.67;;;;;20.14;41.08;101366.81;5022098;28;45656;-55
2021/05/27 00:35:53;;;;;;;;;3.67;3.33;;;;;20.13;40.83;101365.94;5022316;28;45320;-56
2021/05/27 00:38:19;;;;;;;;;3.00;3.00;;;;;20.13;41.46;101357.19;5011673;28;48906;-54
2021/05/27 00:40:44;;;;;;;;;2.00;2.00;;;;;20.12;41.17;101358.09;5021695;28;46011;-56
2021/05/27 00:43:09;;;;;;;;;2.67;2.67;;;;;20.12;41.33;101358.09;5021498;28;57895;-57
2021/05/27 00:45:35;;;;;;;;;2.67;2.67;;;;;20.12;41.00;101366.00;5021217;28;61791;-56
2021/05/27 00:48:00;;;;;;;;;1.67;1.67;;;;;20.11;41.07;101365.16;5022086;28;45492;-55
2021/05/27 00:50:26;;;;;;;;;3.33;3.33;;;;;20.12;41.08;101363.34;5021738;28;46081;-55
2021/05/27 00:52:53;;;;;;;;;3.67;3.67;;;;;20.10;41.21;101366.06;5021631;28;54801;-56
2021/05/27 00:55:20;;;;;;;;;3.00;3.00;;;;;20.10;41.29;101366.91;5021682;28;45321;-56
2021/05/27 00:57:46;;;;;;;;;2.67;2.67;;;;;20.09;41.28;101370.44;5015268;28;45450;-56
2021/05/27 01:00:14;;;;;;;;;2.67;2.67;;;;;20.08;41.03;101371.34;5023141;28;46366;-55
2021/05/27 01:02:41;;;;;;;;;4.33;2.67;;;;;20.09;41.33;101377.50;5021735;28;45332;-56
2021/05/27 01:05:09;;;;;;;;;3.33;3.33;;;;;20.08;40.92;101378.41;5021769;28;45467;-55
2021/05/27 01:07:34;;;;;;;;;3.33;2.67;;;;;20.07;41.23;101374.91;5016324;28;45189;-55
2021/05/27 01:10:00;;;;;;;;;3.67;3.67;;;;;20.07;41.05;101382.78;5025733;28;46056;-55
2021/05/27 01:12:25;;;;;;;;;1.67;1.67;;;;;20.07;41.49;101382.78;5029156;28;45210;-55
2021/05/27 01:17:38;;;;;;;;;2.67;2.67;;;;;20.06;41.69;101385.50;5025262;28;45619;-55
2021/05/27 01:20:11;;;;;;;;;3.00;3.00;;;;;20.06;41.42;101388.13;5025050;28;46320;-56
2021/05/27 01:22:37;;;;;;;;;3.00;3.00;;;;;20.05;41.10;101386.41;5026162;28;45512;-55
2021/05/27 01:25:05;;;;;;;;;2.33;2.33;;;;;20.05;41.56;101383.78;5024703;28;45349;-56
2021/05/27 01:27:30;;;;;;;;;3.33;3.33;;;;;20.05;41.33;101386.41;5025217;28;45312;-54
2021/05/27 01:29:56;;;;;;;;;3.33;3.33;;;;;20.05;40.96;101386.41;5024404;28;60575;-56
2021/05/27 01:32:21;;;;;;;;;2.67;2.67;;;;;20.03;41.21;101385.59;5024967;28;45325;-55
2021/05/27 01:34:47;;;;;;;;;4.33;3.67;;;;;20.03;41.33;101382.94;5023728;28;45275;-55
2021/05/27 01:37:13;;;;;;;;;3.00;3.00;;;;;20.03;41.27;101385.59;5036972;28;45333;-55
2021/05/27 01:39:38;;;;;;;;;2.33;2.33;;;;;20.02;41.41;101390.00;5024664;28;45161;-55
2021/05/27 01:42:04;;;;;;;;;3.33;3.33;;;;;20.03;41.12;101391.72;5024427;28;53980;-55
2021/05/27 01:44:29;;;;;;;;;3.00;3.00;;;;;20.01;40.84;101390.91;5024627;28;45382;-54
2021/05/27 01:46:54;;;;;;;;;2.33;2.33;;;;;20.01;40.96;101390.91;5024848;28;45330;-55
2021/05/27 01:49:20;;;;;;;;;4.00;4.00;;;;;20.01;41.20;101400.56;5023220;28;51790;-56
2021/05/27 01:51:49;;;;;;;;;4.00;4.00;;;;;20.01;41.08;101397.94;5023355;28;45264;-53
2021/05/27 01:54:16;;;;;;;;;3.00;3.00;;;;;20.00;40.88;101396.22;5024513;28;45297;-56
2021/05/27 01:56:42;;;;;;;;;3.33;3.33;;;;;20.00;41.01;101399.72;5024596;28;45339;-56
2021/05/27 01:59:07;;;;;;;;;2.67;2.67;;;;;19.99;41.02;101395.38;5024138;28;45417;-56
2021/05/27 02:01:33;;;;;;;;;2.67;2.67;;;;;19.99;41.00;101395.38;5024205;28;47749;-56
2021/05/27 02:03:58;;;;;;;;;1.67;1.67;;;;;19.98;41.08;101398.91;5031454;28;45264;-57
2021/05/27 02:06:23;;;;;;;;;2.67;2.67;;;;;19.98;40.97;101393.63;5040493;28;62839;-56
2021/05/27 02:11:34;;;;;;;;;3.33;2.33;;;;;19.97;41.30;101394.53;5037392;28;45216;-56
2021/05/27 02:13:59;;;;;;;;;3.33;2.67;;;;;19.97;41.03;101391.03;5033726;28;45524;-55
2021/05/27 02:16:24;;;;;;;;;2.67;2.67;;;;;19.97;41.03;101398.94;5026638;28;45612;-55
2021/05/27 02:18:50;;;;;;;;;3.00;3.00;;;;;19.96;40.96;101400.72;5022053;28;69120;-56
2021/05/27 02:21:15;;;;;;;;;3.33;2.67;;;;;19.97;41.08;101401.56;5023614;28;58777;-55
2021/05/27 02:23:40;;;;;;;;;2.67;2.67;;;;;19.95;41.04;101393.72;5024997;28;45445;-56
2021/05/27 02:26:06;;;;;;;;;3.67;3.67;;;;;19.95;40.79;101396.34;5018820;28;59141;-55
2021/05/27 02:28:31;;;;;;;;;4.00;3.00;;;;;19.95;41.05;101399.00;5023853;28;45379;-56
2021/05/27 02:30:57;;;;;;;;;3.00;3.00;;;;;19.93;40.98;101396.41;5023891;28;45351;-55
2021/05/27 02:33:22;;;;;;;;;3.00;3.00;;;;;19.94;41.17;101399.91;5024090;28;45461;-56
2021/05/27 02:35:47;;;;;;;;;2.67;2.67;;;;;19.94;41.17;101405.16;5021691;28;60373;-55
2021/05/27 02:38:13;;;;;;;;;5.00;3.67;;;;;19.94;41.08;101397.25;5022561;28;63400;-55
2021/05/27 02:40:38;;;;;;;;;3.00;3.00;;;;;19.93;41.09;101406.97;5023245;28;57022;-55
2021/05/27 02:43:04;;;;;;;;;3.67;3.00;;;;;19.92;41.34;101401.72;5023711;28;52963;-55
2021/05/27 02:45:29;;;;;;;;;3.00;3.00;;;;;19.92;41.30;101402.59;5023984;28;45474;-55
2021/05/27 02:47:54;;;;;;;;;2.67;2.67;;;;;19.92;41.06;101406.97;5022934;28;69238;-55
2021/05/27 02:50:20;;;;;;;;;3.67;3.67;;;;;19.91;41.36;101408.78;5021734;28;60948;-55
2021/05/27 02:52:45;;;;;;;;;3.00;3.00;;;;;19.91;41.05;101402.63;5023927;28;45409;-55
2021/05/27 02:55:11;;;;;;;;;3.00;2.33;;;;;19.90;41.10;101399.13;5022622;28;61771;-55
2021/05/27 02:57:36;;;;;;;;;3.33;3.33;;;;;19.90;41.22;101403.53;5023196;28;45429;-55
2021/05/27 03:00:05;;;;;;;;;4.00;4.00;;;;;19.90;40.95;101404.41;5021512;28;64255;-54
2021/05/27 03:02:31;;;;;;;;;3.67;3.67;;;;;19.90;40.89;101398.25;5023488;28;45374;-54
2021/05/27 03:04:56;;;;;;;;;2.67;2.67;;;;;19.89;41.20;101397.41;5023061;28;50167;-55
2021/05/27 03:07:22;;;;;;;;;3.00;3.00;;;;;19.89;40.69;101405.31;5022983;28;62380;-55
2021/05/27 03:09:47;;;;;;;;;4.00;4.00;;;;;19.88;40.87;101403.59;5024502;28;45354;-56
2021/05/27 03:12:12;;;;;;;;;3.67;3.67;;;;;19.89;40.81;101404.47;5033826;28;45414;-56
2021/05/27 03:14:38;;;;;;;;;4.33;4.00;;;;;19.88;41.00;101406.22;5035627;28;45525;-57
2021/05/27 03:17:03;;;;;;;;;2.33;2.33;;;;;19.88;41.14;101406.22;5022752;28;58203;-57
2021/05/27 03:19:28;;;;;;;;;3.33;3.33;;;;;19.88;41.24;101408.00;5022649;28;61957;-57
2021/05/27 03:21:54;;;;;;;;;4.67;3.33;;;;;19.87;41.15;101401.84;5022587;28;63973;-57
2021/05/27 03:24:19;;;;;;;;;3.00;3.00;;;;;19.87;40.90;101406.28;5024562;28;45432;-55
2021/05/27 03:26:45;;;;;;;;;3.67;3.67;;;;;19.87;41.01;101408.91;5022319;28;65569;-60
2021/05/27 03:29:10;;;;;;;;;4.00;4.00;;;;;19.85;41.06;101408.91;5023152;28;45279;-56
2021/05/27 03:31:36;;;;;;;;;3.67;2.67;;;;;19.85;40.68;101408.91;5023071;28;45308;-57
2021/05/27 03:34:02;;;;;;;;;3.33;3.33;;;;;19.86;40.80;101408.00;5023187;28;45304;-57
2021/05/27 03:36:27;;;;;;;;;3.33;3.33;;;;;19.85;40.95;101408.91;5021882;28;46218;-57
2021/05/27 03:38:52;;;;;;;;;4.33;4.33;;;;;19.85;40.75;101403.63;5020948;28;55191;-56
2021/05/27 03:41:18;;;;;;;;;3.67;2.33;;;;;19.85;41.03;101402.78;5022370;28;58407;-54
2021/05/27 03:43:43;;;;;;;;;2.67;2.67;;;;;19.84;40.72;101396.66;5022713;28;45462;-57
2021/05/27 03:46:08;;;;;;;;;3.33;3.00;;;;;19.83;41.16;101394.91;5022861;28;45232;-57
2021/05/27 03:48:34;;;;;;;;;4.00;4.00;;;;;19.84;40.81;101401.91;5022377;28;56433;-57
2021/05/27 03:50:59;;;;;;;;;4.67;4.33;;;;;19.83;40.90;101399.34;5022971;28;45182;-57
2021/05/27 03:53:24;;;;;;;;;5.00;5.00;;;;;19.84;40.90;101393.16;5022872;28;45232;-57
2021/05/27 03:55:50;;;;;;;;;3.00;3.00;;;;;19.83;40.99;101400.19;5022641;28;46111;-56
2021/05/27 04:00:59;;;;;;;;;5.33;4.00;;;;;19.82;40.93;101403.72;5022674;28;45478;-55
2021/05/27 04:03:25;;;;;;;;;4.33;4.33;;;;;19.82;41.08;101408.16;5021349;28;45293;-56
2021/05/27 04:08:34;;;;;;;;;4.33;4.00;;;;;19.81;40.73;101409.94;5022206;28;45354;-56
2021/05/27 04:11:00;;;;;;;;;3.67;3.67;;;;;19.80;40.92;101411.69;5035271;28;45298;-56
2021/05/27 04:13:26;;;;;;;;;5.00;3.33;;;;;19.80;40.62;101411.69;5022940;28;45189;-56
2021/05/27 04:15:51;;;;;;;;;4.00;4.00;;;;;19.79;40.94;101407.31;5020861;28;46869;-56
2021/05/27 04:18:18;;;;;;;;;4.00;3.33;;;;;19.78;41.04;101413.50;5022301;28;45493;-55
2021/05/27 04:20:51;;;;;;;;;2.67;2.67;;;;;19.79;41.35;101417.00;5022505;28;45254;-57
2021/05/27 04:23:33;;;;;;;;;2.67;2.67;;;;;19.79;40.72;101422.28;5023800;28;45461;-56
2021/05/27 04:25:59;;;;;;;;;2.00;1.67;;;;;19.78;40.74;101421.41;5022129;28;45305;-55
2021/05/27 04:28:24;;;;;;;;;3.00;3.00;;;;;19.78;40.78;101421.41;5020864;28;45207;-59
2021/05/27 04:33:33;;;;;;;;;3.33;3.33;;;;;19.78;41.05;101431.94;5022465;28;45269;-56
2021/05/27 04:35:58;;;;;;;;;4.33;4.33;;;;;19.78;40.89;101431.09;5021136;28;66240;-56
2021/05/27 04:38:24;;;;;;;;;3.00;3.00;;;;;19.78;40.67;101431.09;5021028;28;62970;-55
2021/05/27 04:40:49;;;;;;;;;4.33;4.33;;;;;19.78;40.78;101431.94;5020760;28;45545;-56
2021/05/27 04:43:16;;;;;;;;;4.67;4.00;;;;;19.77;41.06;101443.38;5032078;28;52227;-56
2021/05/27 04:45:42;;;;;;;;;3.00;3.00;;;;;19.77;40.92;101446.00;5023025;28;46174;-54
2021/05/27 04:48:12;;;;;;;;;4.33;4.33;;;;;19.77;41.06;101439.91;5021224;28;59061;-54
2021/05/27 04:50:42;;;;;;;;;4.67;3.67;;;;;19.76;40.53;101441.66;5021919;28;45220;-58
2021/05/27 04:53:08;;;;;;;;;5.33;5.33;;;;;19.76;40.81;101441.66;5020738;28;45406;-54
2021/05/27 04:55:34;;;;;;;;;4.00;3.67;;;;;19.77;41.03;101448.63;5020389;28;45359;-54
2021/05/27 04:58:00;;;;;;;;;3.00;3.00;;;;;19.76;41.14;101452.19;5020397;28;45354;-53
2021/05/27 05:00:26;;;;;;;;;5.00;4.00;;;;;19.76;40.88;101444.28;5021752;28;45511;-57
2021/05/27 05:02:53;;;;;;;;;3.67;3.67;;;;;19.76;40.69;101441.66;5021043;28;45388;-57
2021/05/27 05:05:19;;;;;;;;;5.33;3.67;;;;;19.75;40.96;101447.81;5020170;28;47377;-57
2021/05/27 05:07:45;;;;;;;;;5.00;3.00;;;;;19.76;40.93;101446.06;5020155;28;45390;-55
2021/05/27 05:10:12;;;;;;;;;4.00;4.00;;;;;19.76;41.13;101448.69;5027572;28;45483;-55
2021/05/27 05:12:45;;;;;;;;;4.67;3.33;;;;;19.76;40.85;101441.66;5029063;28;45736;-55
2021/05/27 05:15:12;;;;;;;;;3.33;3.33;;;;;19.75;40.75;101450.44;5021435;28;45978;-55
2021/05/27 05:17:38;;;;;;;;;3.67;3.67;;;;;19.76;40.84;101449.53;5021144;28;45325;-55
2021/05/27 05:20:04;;;;;;;;;2.67;2.67;;;;;19.76;40.75;101441.66;5020235;28;45513;-55
2021/05/27 05:22:30;;;;;;;;;4.00;4.00;;;;;19.75;41.00;101450.44;5021830;28;45475;-55
2021/05/27 05:24:56;;;;;;;;;4.00;4.00;;;;;19.76;40.76;101459.22;5020126;28;62928;-61
2021/05/27 05:27:22;;;;;;;;;3.67;3.67;;;;;19.75;41.12;101458.34;5021346;28;45244;-55
2021/05/27 05:29:47;;;;;;;;;3.67;3.67;;;;;19.75;40.93;101463.63;5027150;28;45305;-54
2021/05/27 05:32:13;;;;;;;;;3.00;3.00;;;;;19.75;40.67;101457.50;5027406;28;45410;-56
2021/05/27 05:34:38;;;;;;;;;4.33;4.00;;;;;19.76;40.81;101464.50;5021251;28;52684;-56
2021/05/27 05:37:04;;;;;;;;;5.33;5.33;;;;;19.76;40.75;101461.88;5021222;28;48441;-56
2021/05/27 05:39:29;;;;;;;;;4.00;4.00;;;;;19.77;41.21;101467.06;5021015;28;45303;-56
2021/05/27 05:41:54;;;;;;;;;6.00;4.33;;;;;19.76;41.10;101470.63;5021064;28;51652;-56
2021/05/27 05:44:20;;;;;;;;;4.00;3.00;;;;;19.76;41.06;101478.50;5020598;28;53115;-57
2021/05/27 05:46:45;;;;;;;;;5.67;5.67;;;;;19.76;40.85;101481.16;5021014;28;45244;-57
2021/05/27 05:49:10;;;;;;;;;6.33;4.00;;;;;19.77;41.33;101484.66;5021170;28;45251;-57
2021/05/27 05:51:36;;;;;;;;;6.67;5.00;;;;;19.78;41.60;101483.75;5020089;28;45248;-55
2021/05/27 05:54:01;;;;;;;;;7.33;5.33;;;;;19.77;41.36;101487.28;5021209;28;46051;-57
2021/05/27 05:56:27;;;;;;;;;3.67;3.67;;;;;19.78;41.65;101487.25;5021362;28;45509;-57
2021/05/27 05:58:52;;;;;;;;;4.67;4.67;;;;;19.79;41.42;101493.38;5021375;28;54404;-56
2021/05/27 06:01:18;;;;;;;;;2.67;2.67;;;;;19.79;41.85;101494.22;5021726;28;45560;-57
2021/05/27 06:03:43;;;;;;;;;5.00;5.00;;;;;19.80;41.92;101495.97;5021767;28;60115;-56
2021/05/27 06:06:10;;;;;;;;;4.67;4.67;;;;;19.82;41.78;101497.69;5014159;28;45322;-57
2021/05/27 06:08:36;;;;;;;;;3.67;3.67;;;;;19.82;41.96;101498.53;5023511;28;45321;-56
2021/05/27 06:11:01;;;;;;;;;4.67;3.67;;;;;19.83;41.74;101499.41;5037071;28;45474;-56
2021/05/27 06:13:26;;;;;;;;;3.67;3.67;;;;;19.84;41.53;101495.88;5026700;28;50476;-55
2021/05/27 06:15:52;;;;;;;;;4.33;4.33;;;;;19.84;41.72;101495.88;5025382;28;62412;-52
2021/05/27 06:18:17;;;;;;;;;5.00;4.00;;;;;19.84;42.00;101502.00;5030279;28;45386;-54
2021/05/27 06:20:43;;;;;;;;;3.00;3.00;;;;;19.86;41.69;101500.19;5037043;28;45315;-54
2021/05/27 06:23:08;;;;;;;;;4.00;4.00;;;;;19.87;41.61;101501.09;5037112;28;45936;-54
2021/05/27 06:25:34;;;;;;;;;5.67;5.00;;;;;19.88;42.04;101500.19;5028359;28;45221;-52
2021/05/27 06:27:59;;;;;;;;;3.67;3.67;;;;;19.91;41.69;101507.97;5025894;28;45501;-53
2021/05/27 06:30:28;;;;;;;;;5.33;5.33;;;;;19.92;41.50;101504.44;5024525;28;45241;-53
2021/05/27 06:32:53;;;;;;;;;6.67;4.67;;;;;19.94;41.87;101505.25;5023986;28;45744;-53
2021/05/27 06:35:19;;;;;;;;;4.33;3.33;;;;;19.95;41.74;101507.00;5027389;28;45483;-55
2021/05/27 06:37:44;;;;;;;;;4.33;4.33;;;;;19.95;41.73;101499.09;5027045;28;47115;-51
2021/05/27 06:40:17;;;;;;;;;3.00;3.00;;;;;19.97;41.68;101505.19;5030704;28;45356;-56
2021/05/27 06:42:43;;;;;;;;;4.67;4.67;;;;;19.99;41.55;101506.00;5025515;28;46885;-54
2021/05/27 06:45:09;;;;;;;;;4.00;4.00;;;;;20.00;41.90;101507.72;5022342;28;45582;-55
2021/05/27 06:47:35;;;;;;;;;2.67;2.67;;;;;20.03;42.01;101514.66;5023602;28;45335;-52
2021/05/27 06:50:01;;;;;;;;;5.00;3.00;;;;;20.03;41.62;101506.78;5021293;28;45300;-51
2021/05/27 06:52:26;;;;;;;;;3.67;3.67;;;;;20.04;41.70;101506.72;5039558;28;45458;-54
2021/05/27 06:54:52;;;;;;;;;4.00;4.00;;;;;20.06;41.68;101507.53;5041652;28;45403;-54
2021/05/27 06:57:18;;;;;;;;;4.67;3.00;;;;;20.07;41.77;101504.00;5037524;28;45283;-54
2021/05/27 06:59:43;;;;;;;;;6.33;5.00;;;;;20.09;41.57;101506.59;5034550;28;45446;-52
2021/05/27 07:02:08;;;;;;;;;78.25;59.75;;;;;20.10;41.94;101497.78;5016513;28;64990;-54
2021/05/27 07:04:34;;;;;;;;;84.00;61.00;;;;;20.10;41.91;101501.28;5023621;28;45280;-53
2021/05/27 07:06:59;;;;;;;;;44.50;35.00;;;;;20.13;41.56;101502.09;5024788;28;62738;-54
2021/05/27 07:09:24;;;;;;;;;14.67;10.67;;;;;20.14;41.46;101501.19;5022104;28;50211;-55
2021/05/27 07:11:50;;;;;;;;;6.33;6.33;;;;;20.16;41.59;101507.28;5038786;28;46024;-53
2021/05/27 07:14:15;;;;;;;;;6.00;5.00;;;;;20.15;41.49;101503.75;5039033;28;45576;-52
2021/05/27 07:16:41;;;;;;;;;4.00;4.00;;;;;20.17;41.70;101506.38;5027756;28;45533;-54
2021/05/27 07:19:07;;;;;;;;;5.00;4.00;;;;;20.17;41.41;101507.22;5029710;28;45452;-56
2021/05/27 07:21:32;;;;;;;;;5.67;3.67;;;;;20.19;41.56;101515.09;5039884;28;46069;-52
2021/05/27 07:23:57;;;;;;;;;3.00;3.00;;;;;20.19;41.73;101515.09;5032056;28;45418;-50
2021/05/27 07:26:23;;;;;;;;;3.00;3.00;;;;;20.20;41.67;101515.03;5036535;28;54492;-54
2021/05/27 07:28:48;;;;;;;;;4.67;4.67;;;;;20.21;41.48;101521.16;5022028;28;46040;-54
2021/05/27 07:31:14;;;;;;;;;4.67;4.67;;;;;20.22;41.60;101523.78;5021307;28;45552;-53
2021/05/27 07:33:39;;;;;;;;;68.00;50.00;;;;;20.22;41.75;101521.13;5021407;28;56495;-52
2021/05/27 07:36:05;;;;;;;;;111.25;89.25;;;;;20.24;41.54;101521.97;5021606;28;45376;-52
2021/05/27 07:38:31;;;;;;;;;66.75;48.75;;;;;20.25;41.49;101525.44;5034167;28;45530;-53
2021/05/27 07:40:56;;;;;;;;;23.67;18.67;;;;;20.26;41.40;101524.53;5041577;28;46195;-52
2021/05/27 07:43:22;;;;;;;;;9.33;7.00;;;;;20.27;41.61;101523.63;5038604;28;45363;-50
2021/05/27 07:45:47;;;;;;;;;4.33;4.00;;;;;20.29;41.66;101528.84;5035024;28;45408;-51
2021/05/27 07:48:13;;;;;;;;;4.67;4.00;;;;;20.29;41.82;101529.72;5028175;28;53447;-52
2021/05/27 07:50:38;;;;;;;;;4.00;4.00;;;;;20.30;41.39;101531.44;5021809;28;45308;-53
2021/05/27 07:53:04;;;;;;;;;68.50;53.25;;;;;20.31;41.71;101522.63;5020208;28;45552;-54
2021/05/27 07:55:29;;;;;;;;;16.67;15.00;;;;;20.32;41.52;101527.00;5020693;28;45487;-52
2021/05/27 07:57:55;;;;;;;;;7.00;6.67;;;;;20.34;41.29;101532.22;5023082;28;45154;-53
2021/05/27 08:00:21;;;;;;;;;5.67;5.67;;;;;20.35;41.52;101536.56;5021583;28;46468;-50
2021/05/27 08:02:47;;;;;;;;;4.67;4.67;;;;;20.35;41.36;101529.50;5022686;28;45203;-54
2021/05/27 08:05:13;;;;;;;;;5.33;5.00;;;;;20.36;41.54;101527.75;5011228;28;45549;-53
2021/05/27 08:07:38;;;;;;;;;127.75;103.50;;;;;20.37;41.49;101534.75;5030174;28;45629;-54
2021/05/27 08:10:04;;;;;;;;;69.75;51.50;;;;;20.37;41.30;101532.97;5022128;28;45437;-53
2021/05/27 08:12:30;;;;;;;;;23.00;16.67;;;;;20.38;41.18;101539.97;5021940;28;45574;-51
2021/05/27 08:14:57;;;;;;;;;9.67;8.00;;;;;20.39;41.42;101531.16;5016836;28;45247;-53
2021/05/27 08:17:23;;;;;;;;;182.00;148.33;;;;;20.40;41.19;101537.31;5026484;28;45644;-51
2021/05/27 08:19:48;;;;;;;;;131.00;106.33;;;;;20.40;40.99;101534.66;5037163;28;45893;-53
2021/05/27 08:22:16;;;;;;;;;62.75;48.00;;;;;20.40;41.30;101538.16;5039110;28;45431;-55
2021/05/27 08:24:41;;;;;;;;;29.33;22.00;;;;;20.41;41.04;101539.03;5024147;28;45660;-54
2021/05/27 08:27:06;;;;;;;;;10.67;10.67;;;;;20.41;41.26;101531.13;5021903;28;45326;-53
2021/05/27 08:29:32;;;;;;;;;6.33;6.33;;;;;20.42;41.36;101527.56;5020370;28;63867;-52
2021/05/27 08:31:57;;;;;;;;;5.33;5.33;;;;;20.43;41.04;101538.97;5039372;28;61290;-54
2021/05/27 08:34:23;;;;;;;;;5.00;5.00;;;;;20.43;41.10;101528.44;5040549;28;49867;-53
2021/05/27 08:36:48;;;;;;;;;96.00;76.50;;;;;20.45;40.86;101534.53;5039557;28;57368;-52
2021/05/27 08:39:15;;;;;;;;;111.75;93.00;;;;;20.44;41.03;101540.69;5024504;28;53403;-51
2021/05/27 08:41:40;;;;;;;;;52.50;40.50;;;;;20.43;40.95;101537.19;5022350;28;45697;-54
2021/05/27 08:44:06;;;;;;;;;20.33;17.33;;;;;20.45;40.98;101543.28;5020886;28;58212;-53
2021/05/27 08:46:31;;;;;;;;;13.00;10.00;;;;;20.46;40.97;101541.53;5032451;28;45398;-59
2021/05/27 08:48:58;;;;;;;;;81.00;66.00;;;;;20.46;40.63;101529.19;5030923;28;46258;-55
2021/05/27 08:51:24;;;;;;;;;222.00;182.25;;;;;20.46;40.81;101531.81;5019551;28;45423;-53
2021/05/27 08:53:50;;;;;;;;;76.50;59.75;;;;;20.47;40.91;101532.72;5022062;28;45303;-54
2021/05/27 08:56:15;;;;;;;;;42.00;32.25;;;;;20.48;40.94;101534.44;5021343;28;54376;-53
2021/05/27 08:58:41;;;;;;;;;21.00;17.67;;;;;20.48;40.92;101537.06;5019823;28;51944;-55
2021/05/27 09:01:07;;;;;;;;;13.67;12.67;;;;;20.48;40.63;101545.84;5026749;28;45470;-55
2021/05/27 09:03:44;;;;;;;;;10.67;10.67;;;;;20.49;40.70;101541.44;5039648;28;45433;-56
2021/05/27 09:06:12;;;;;;;;;9.00;7.67;;;;;20.48;40.50;101540.56;5034172;28;45437;-61
2021/05/27 09:08:39;;;;;;;;;10.00;7.00;;;;;20.49;40.67;101544.91;5029055;28;46137;-53
2021/05/27 09:11:08;;;;;;;;;6.67;6.33;;;;;20.49;40.49;101537.00;5026464;28;45489;-54
2021/05/27 09:13:35;;;;;;;;;7.33;7.00;;;;;20.51;40.67;101537.84;5028035;28;45391;-53
2021/05/27 09:16:09;;;;;;;;;11.67;5.00;;;;;20.52;40.60;101541.31;5042584;28;45600;-52
2021/05/27 09:18:39;;;;;;;;;5.67;5.67;;;;;20.52;40.73;101533.41;5035400;28;47437;-53
2021/05/27 09:21:07;;;;;;;;;10.00;6.67;;;;;20.53;40.59;101543.03;5020735;28;45332;-52
2021/05/27 09:23:34;;;;;;;;;95.25;78.75;;;;;20.53;40.51;101537.78;5027284;28;45634;-52
2021/05/27 09:26:15;;;;;;;;;151.00;118.67;;;;;20.53;40.37;101538.66;5024613;28;45363;-52
2021/05/27 09:28:41;;;;;;;;;77.75;56.75;;;;;20.54;40.58;101539.50;5025902;28;45860;-53
2021/05/27 09:31:10;;;;;;;;;49.00;38.75;;;;;20.54;40.52;101540.38;5040227;28;45335;-53
2021/05/27 09:33:37;;;;;;;;;20.67;18.00;;;;;20.55;40.27;101543.88;5038983;28;45478;-53
2021/05/27 09:36:15;;;;;;;;;71.75;54.25;;;;;20.55;40.42;101550.03;5042747;28;45451;-53
2021/05/27 09:38:46;;;;;;;;;105.67;87.00;;;;;20.56;40.31;101542.97;5041500;28;46473;-56
2021/05/27 09:41:25;;;;;;;;;76.25;55.75;;;;;20.57;40.49;101544.69;5025625;28;45423;-54
2021/05/27 09:43:56;;;;;;;;;35.00;29.33;;;;;20.57;40.11;101547.31;5024600;28;45386;-51
2021/05/27 09:46:23;;;;;;;;;23.33;19.00;;;;;20.56;40.42;101554.38;5017709;28;45342;-53
2021/05/27 09:49:08;;;;;;;;;15.33;12.67;;;;;20.58;40.20;101556.09;5026861;28;45351;-53
2021/05/27 09:51:35;;;;;;;;;13.00;11.00;;;;;20.58;40.22;101551.69;5034178;28;45252;-53
2021/05/27 09:54:01;;;;;;;;;13.33;11.67;;;;;20.59;40.43;101556.06;5041441;28;45476;-54
2021/05/27 09:56:40;;;;;;;;;9.00;7.00;;;;;20.60;40.29;101560.41;5040672;28;45441;-52
2021/05/27 09:59:07;;;;;;;;;6.67;6.67;;;;;20.61;39.99;101556.88;5029464;28;46973;-51
2021/05/27 10:01:32;;;;;;;;;9.33;7.33;;;;;20.61;40.17;101562.16;5034390;28;45306;-53
2021/05/27 10:04:24;;;;;;;;;7.00;7.00;;;;;20.62;40.17;101555.09;5028915;28;45596;-53
2021/05/27 10:06:49;;;;;;;;;10.00;7.00;;;;;20.62;39.99;101553.31;5026909;28;49595;-49
2021/05/27 10:09:15;;;;;;;;;5.67;5.00;;;;;20.63;39.72;101562.97;5034026;28;64835;-53
2021/05/27 10:11:40;;;;;;;;;113.25;89.50;;;;;20.64;40.16;101554.16;5026758;28;45355;-52
2021/05/27 10:14:10;;;;;;;;;125.67;108.33;;;;;20.65;39.77;101547.94;5038194;28;45449;-50
2021/05/27 10:16:37;;;;;;;;;80.75;61.00;;;;;20.66;39.86;101548.81;5033239;28;45671;-55
2021/05/27 10:19:04;;;;;;;;;62.00;44.75;;;;;20.68;39.67;101550.47;5028577;28;46258;-54
2021/05/27 10:21:30;;;;;;;;;32.75;25.25;;;;;20.69;39.67;101551.34;5022851;28;45390;-52
2021/05/27 10:23:55;;;;;;;;;18.33;18.33;;;;;20.70;39.80;101561.84;5025442;28;46006;-52
2021/05/27 10:26:21;;;;;;;;;16.67;14.67;;;;;20.70;40.28;101553.94;5037177;28;59451;-53
2021/05/27 10:28:52;;;;;;;;;28.75;27.25;;;;;20.71;42.08;101555.66;5035947;28;46280;-53
2021/05/27 10:31:20;;;;;;;;;29.75;25.50;;;;;20.73;42.19;101560.88;5024368;28;45456;-54
2021/05/27 10:33:46;;;;;;;;;19.67;19.67;;;;;20.74;42.37;101553.84;5024925;28;45465;-55
2021/05/27 10:36:11;;;;;;;;;22.75;21.25;;;;;20.74;42.28;101554.69;5029477;28;45807;-53
2021/05/27 10:38:37;;;;;;;;;25.75;24.75;;;;;20.75;43.22;101560.84;5028202;28;49143;-53
2021/05/27 10:41:03;;;;;;;;;26.75;25.00;;;;;20.76;43.10;101552.06;5039959;28;45393;-51
2021/05/27 10:43:28;;;;;;;;;28.50;28.50;;;;;20.77;43.26;101553.78;5042549;28;45320;-50
2021/05/27 10:45:57;;;;;;;;;23.00;20.25;;;;;20.76;42.87;101552.91;5038764;28;45412;-54
2021/05/27 10:48:26;;;;;;;;;22.00;20.00;;;;;20.77;42.89;101554.63;5027994;28;46980;-52
2021/05/27 10:53:48;;;;;;;;;20.00;20.00;;;;;20.77;42.42;101557.28;5027571;28;45452;-54
2021/05/27 10:56:19;;;;;;;;;20.50;18.75;;;;;20.78;42.69;101561.63;5042116;28;45458;-49
2021/05/27 10:58:53;;;;;;;;;20.50;19.50;;;;;20.78;42.36;101563.44;5033643;28;46592;-53
2021/05/27 11:01:27;;;;;;;;;20.00;19.00;;;;;20.78;42.12;101560.78;5037231;28;45841;-54
2021/05/27 11:03:54;;;;;;;;;19.00;17.75;;;;;20.76;42.18;101555.53;5028172;28;45516;-53
2021/05/27 11:06:19;;;;;;;;;20.25;20.00;;;;;20.76;42.19;101558.19;5042799;28;45319;-53
2021/05/27 11:08:45;;;;;;;;;17.25;17.00;;;;;20.76;41.71;101559.97;5042269;28;45355;-52
2021/05/27 11:11:43;;;;;;;;;170.67;141.33;;;;;20.75;41.94;101563.50;5028099;28;45427;-53
2021/05/27 11:14:25;;;;;;;;;601.75;468.00;;;;;20.74;41.71;101565.25;5020864;28;45379;-52
2021/05/27 11:17:15;;;;;;;;;449.20;361.40;;;;;20.74;41.86;101567.88;5022689;28;45636;-52
2021/05/27 11:22:27;;;;;;;;;170.25;146.75;;;;;20.73;41.83;101560.03;5036814;28;45509;-53
2021/05/27 11:25:24;;;;;;;;;101.50;83.25;;;;;20.72;41.91;101564.47;5026955;28;45425;-50
2021/05/27 11:28:05;;;;;;;;;53.50;42.00;;;;;20.71;41.96;101562.72;5025583;28;45794;-52
2021/05/27 11:30:42;;;;;;;;;91.25;76.25;;;;;20.73;41.94;101562.66;5026252;28;45408;-56
2021/05/27 11:33:30;;;;;;;;;154.33;130.33;;;;;20.74;42.25;101562.59;5024824;28;45425;-51
2021/05/27 11:36:04;;;;;;;;;62.75;49.00;;;;;20.74;41.84;101564.41;5037061;28;45346;-50
2021/05/27 11:38:32;;;;;;;;;39.25;35.75;;;;;20.76;42.25;101562.59;5030406;28;45552;-53